Time;durP1;ratioP1;P1;durP2;ratioP2;P2;SDS_P1;SDS_P2;PMS_P1;PMS_P2;Temp;Humidity;BMP_temperature;BMP_pressure;BME280_temperature;BME280_humidity;BME280_pressure;Samples;Min_cycle;Max_cycle;Signal;HPM_P1;HPM_P2
2023/03/28 00:01:35;;;;;;;7.72;2.13;;;;;;;2.58;100.00;102761.09;5066243;28;20047;-64
2023/03/28 00:04:02;;;;;;;9.82;1.95;;;;;;;2.55;100.00;102758.38;5065514;28;20025;-56
2023/03/28 00:06:27;;;;;;;11.30;1.90;;;;;;;2.51;100.00;102750.50;5059953;28;20020;-63
2023/03/28 00:08:54;;;;;;;13.73;2.10;;;;;;;2.54;100.00;102762.72;5065965;28;20549;-67
2023/03/28 00:11:21;;;;;;;8.02;2.38;;;;;;;2.52;100.00;102760.09;5067740;28;20028;-62
2023/03/28 00:13:49;;;;;;;7.32;1.90;;;;;;;2.53;100.00;102769.66;5066564;28;20045;-60
2023/03/28 00:16:15;;;;;;;10.40;2.22;;;;;;;2.55;100.00;102759.28;5029241;28;20032;-63
2023/03/28 00:18:41;;;;;;;9.70;2.00;;;;;;;2.56;100.00;102762.78;5067330;28;20263;-62
2023/03/28 00:21:24;;;;;;;6.57;1.80;;;;;;;2.54;100.00;102757.53;5065795;28;20029;-61
2023/03/28 00:23:51;;;;;;;9.52;2.00;;;;;;;2.50;100.00;102764.34;5066833;28;20056;-64
2023/03/28 00:26:17;;;;;;;5.10;1.73;;;;;;;2.47;100.00;102769.44;5066322;28;20029;-61
2023/03/28 00:28:45;;;;;;;10.20;2.70;;;;;;;2.47;100.00;102768.59;5065324;28;20028;-56
2023/03/28 00:31:10;;;;;;;11.40;2.58;;;;;;;2.47;100.00;102772.06;5066177;28;20516;-64
2023/03/28 00:33:36;;;;;;;10.75;2.28;;;;;;;2.49;100.00;102773.00;5066413;28;20036;-60
2023/03/28 00:36:01;;;;;;;8.82;2.28;;;;;;;2.45;100.00;102759.84;5047411;28;20182;-64
2023/03/28 00:38:26;;;;;;;9.80;2.20;;;;;;;2.47;100.00;102769.44;5066876;28;20115;-63
2023/03/28 00:40:56;;;;;;;12.02;1.80;;;;;;;2.46;100.00;102765.09;5065022;28;20016;-62
2023/03/28 00:43:42;;;;;;;8.40;2.03;;;;;;;2.50;100.00;102769.56;5059212;28;20154;-64
2023/03/28 00:46:17;;;;;;;5.93;2.33;;;;;;;2.59;100.00;102768.09;5064404;28;20450;-64
2023/03/28 00:48:48;;;;;;;9.60;2.30;;;;;;;2.59;100.00;102768.94;5066349;28;20032;-62
2023/03/28 00:51:14;;;;;;;13.10;2.15;;;;;;;2.60;100.00;102764.63;5065827;28;20021;-60
2023/03/28 00:53:40;;;;;;;6.63;1.70;;;;;;;2.61;100.00;102766.41;5047055;28;20036;-62
2023/03/28 00:56:07;;;;;;;8.82;1.80;;;;;;;2.55;100.00;102766.19;5048866;28;20178;-59
2023/03/28 00:58:37;;;;;;;11.48;2.10;;;;;;;2.49;100.00;102762.59;5064803;28;20016;-64
2023/03/28 01:01:03;;;;;;;6.68;1.92;;;;;;;2.41;100.00;102758.88;5030222;28;20024;-63
2023/03/28 01:03:32;;;;;;;5.97;1.63;;;;;;;2.32;100.00;102755.97;5066384;28;20490;-56
2023/03/28 01:06:00;;;;;;;12.27;2.22;;;;;;;2.25;100.00;102744.47;5047282;28;20047;-65
2023/03/28 01:08:28;;;;;;;10.85;1.90;;;;;;;2.16;100.00;102750.28;5067068;28;20317;-64
2023/03/28 01:10:54;;;;;;;6.80;1.95;;;;;;;2.06;100.00;102746.50;5047548;28;20279;-64
2023/03/28 01:13:41;;;;;;;9.75;2.00;;;;;;;1.98;100.00;102743.66;5065507;28;20462;-59
2023/03/28 01:16:07;;;;;;;8.52;2.10;;;;;;;1.94;100.00;102748.69;5028743;28;20028;-64
2023/03/28 01:18:33;;;;;;;12.57;2.65;;;;;;;1.87;100.00;102745.03;5065904;28;20546;-59
2023/03/28 01:21:05;;;;;;;7.65;1.98;;;;;;;1.80;100.00;102745.66;5047145;28;20064;-64
2023/03/28 01:23:49;;;;;;;6.63;1.58;;;;;;;1.71;100.00;102736.69;5064519;28;20304;-62
2023/03/28 01:26:26;;;;;;;10.90;2.25;;;;;;;1.64;100.00;102737.31;5065381;28;20028;-62
2023/03/28 01:29:05;;;;;;;11.52;2.38;;;;;;;1.56;100.00;102733.59;5064505;28;20028;-63
2023/03/28 01:32:02;;;;;;;6.13;1.80;;;;;;;1.55;100.00;102737.00;5065254;28;20029;-63
2023/03/28 01:34:49;;;;;;;11.40;1.80;;;;;;;1.56;100.00;102731.00;5063696;28;20028;-65
2023/03/28 01:37:42;;;;;;;4.95;2.03;;;;;;;1.60;100.00;102732.84;5064910;28;20074;-64
2023/03/28 01:40:25;;;;;;;7.10;2.00;;;;;;;1.66;100.00;102738.28;5022893;28;20041;-60
2023/03/28 01:43:01;;;;;;;8.00;2.08;;;;;;;1.70;100.00;102726.25;5065333;28;20449;-62
2023/03/28 01:45:34;;;;;;;5.82;1.70;;;;;;;1.70;100.00;102736.63;5064850;28;20020;-62
2023/03/28 01:48:11;;;;;;;6.97;1.98;;;;;;;1.66;100.00;102733.06;5062605;28;20376;-64
2023/03/28 01:50:48;;;;;;;4.68;1.70;;;;;;;1.61;100.00;102735.50;5058739;28;20043;-64
2023/03/28 01:53:20;;;;;;;9.98;2.08;;;;;;;1.59;100.00;102731.97;5026591;28;20116;-60
2023/03/28 01:55:50;;;;;;;7.00;1.92;;;;;;;1.67;100.00;102737.44;5060928;28;20073;-59
2023/03/28 01:58:19;;;;;;;3.78;1.83;;;;;;;1.73;100.00;102741.94;5030824;28;20389;-64
2023/03/28 02:00:49;;;;;;;8.23;2.00;;;;;;;1.79;100.00;102741.25;5063763;28;20120;-64
2023/03/28 02:03:18;;;;;;;8.27;2.50;;;;;;;1.79;100.00;102738.66;5047441;28;20024;-63
2023/03/28 02:05:44;;;;;;;13.30;2.10;;;;;;;1.75;100.00;102738.56;5064514;28;20035;-60
2023/03/28 02:08:12;;;;;;;9.95;2.13;;;;;;;1.74;100.00;102736.81;5046116;28;20029;-64
2023/03/28 02:10:40;;;;;;;9.15;1.83;;;;;;;1.81;100.00;102739.63;5047244;28;20032;-60
2023/03/28 02:13:11;;;;;;;11.68;1.77;;;;;;;1.82;100.00;102738.78;5028919;28;20063;-63
2023/03/28 02:15:37;;;;;;;6.18;1.63;;;;;;;1.84;100.00;102732.78;5046612;28;20405;-64
2023/03/28 02:18:08;;;;;;;8.57;1.65;;;;;;;1.91;100.00;102731.28;5064205;28;20024;-65
2023/03/28 02:20:35;;;;;;;11.27;1.75;;;;;;;1.95;100.00;102734.84;5063685;28;20378;-61
2023/03/28 02:23:10;;;;;;;7.45;1.40;;;;;;;1.98;100.00;102735.84;5065441;28;20028;-62
2023/03/28 02:25:36;;;;;;;6.93;1.90;;;;;;;2.01;100.00;102732.44;5045452;28;20025;-62
2023/03/28 02:28:04;;;;;;;5.38;1.67;;;;;;;2.00;100.00;102736.78;5065141;28;20025;-61
2023/03/28 02:30:30;;;;;;;10.73;2.00;;;;;;;2.03;100.00;102730.81;5045528;28;20021;-62
2023/03/28 02:33:04;;;;;;;5.20;1.92;;;;;;;2.05;100.00;102729.16;5063610;28;20019;-65
2023/03/28 02:35:49;;;;;;;11.48;2.15;;;;;;;2.05;100.00;102720.44;5065162;28;20028;-64
2023/03/28 02:38:36;;;;;;;5.97;1.50;;;;;;;2.09;100.00;102719.69;5045709;28;20029;-64
2023/03/28 02:41:25;;;;;;;8.40;1.98;;;;;;;2.07;100.00;102709.25;5044432;28;20033;-57
2023/03/28 02:44:19;;;;;;;6.75;1.52;;;;;;;2.05;100.00;102715.25;5032704;28;20479;-62
2023/03/28 02:46:56;;;;;;;4.78;1.95;;;;;;;2.02;100.00;102719.50;5041357;28;20036;-64
2023/03/28 02:49:40;;;;;;;12.25;2.22;;;;;;;1.99;100.00;102718.53;5065475;28;20032;-61
2023/03/28 02:52:20;;;;;;;13.30;1.58;;;;;;;2.00;100.00;102715.09;5050548;28;20032;-64
2023/03/28 02:54:54;;;;;;;10.40;1.85;;;;;;;1.97;100.00;102717.59;5067468;28;20388;-62
2023/03/28 02:57:23;;;;;;;12.82;1.85;;;;;;;1.89;100.00;102720.84;5049309;28;20040;-62
2023/03/28 02:59:57;;;;;;;8.38;2.08;;;;;;;1.85;100.00;102710.28;5068824;28;20701;-63
2023/03/28 03:02:23;;;;;;;10.63;2.15;;;;;;;1.81;100.00;102711.91;5048219;28;20032;-64
2023/03/28 03:04:56;;;;;;;7.97;1.80;;;;;;;1.76;100.00;102703.06;5066603;28;20024;-63
2023/03/28 03:07:22;;;;;;;7.63;1.80;;;;;;;1.75;100.00;102709.97;5068195;28;20093;-62
2023/03/28 03:09:52;;;;;;;5.65;1.77;;;;;;;1.71;100.00;102702.91;5066343;28;20024;-62
2023/03/28 03:12:18;;;;;;;4.65;1.90;;;;;;;1.64;100.00;102711.34;5069061;28;20036;-65
2023/03/28 03:14:43;;;;;;;6.70;1.60;;;;;;;1.55;100.00;102714.50;5070032;28;20045;-57
2023/03/28 03:17:09;;;;;;;3.55;1.75;;;;;;;1.47;100.00;102716.84;5050532;28;20039;-65
2023/03/28 03:19:35;;;;;;;6.68;1.50;;;;;;;1.39;100.00;102713.09;5068671;28;20127;-62
2023/03/28 03:22:01;;;;;;;4.82;1.98;;;;;;;1.38;100.00;102706.13;5068533;28;20109;-65
2023/03/28 03:24:27;;;;;;;6.40;1.50;;;;;;;1.35;100.00;102704.31;5070839;28;20467;-63
2023/03/28 03:26:52;;;;;;;9.07;1.80;;;;;;;1.35;100.00;102706.91;5069567;28;20234;-63
2023/03/28 03:29:18;;;;;;;7.45;1.48;;;;;;;1.38;100.00;102714.81;5051388;28;20035;-59
2023/03/28 03:31:43;;;;;;;7.78;1.70;;;;;;;1.40;100.00;102714.88;5067208;28;20150;-60
2023/03/28 03:34:08;;;;;;;6.78;1.95;;;;;;;1.42;100.00;102709.72;5068498;28;20055;-62
2023/03/28 03:36:34;;;;;;;8.63;1.70;;;;;;;1.44;100.00;102702.88;5066974;28;20159;-63
2023/03/28 03:38:59;;;;;;;7.40;1.60;;;;;;;1.34;100.00;102694.75;5066918;28;20079;-59
2023/03/28 03:41:25;;;;;;;6.90;1.83;;;;;;;1.29;100.00;102708.41;5068443;28;20067;-63
2023/03/28 03:43:50;;;;;;;12.05;2.67;;;;;;;1.31;100.00;102707.63;5066545;28;20025;-64
2023/03/28 03:46:15;;;;;;;5.53;1.67;;;;;;;1.26;100.00;102699.69;5067043;28;20416;-62
2023/03/28 03:48:41;;;;;;;6.18;2.03;;;;;;;1.22;100.00;102696.91;5050035;28;20028;-64
2023/03/28 03:51:06;;;;;;;10.90;2.53;;;;;;;1.23;100.00;102693.47;5065811;28;20178;-61
2023/03/28 03:53:35;;;;;;;12.95;2.22;;;;;;;1.20;100.00;102693.41;5070375;28;20060;-66
2023/03/28 03:56:01;;;;;;;5.82;2.08;;;;;;;1.15;100.00;102690.63;5069461;28;20031;-62
2023/03/28 03:58:27;;;;;;;13.45;2.53;;;;;;;1.14;100.00;102683.66;5069202;28;20577;-63
2023/03/28 04:00:52;;;;;;;11.38;2.70;;;;;;;1.13;100.00;102690.59;5069807;28;20048;-63
2023/03/28 04:03:18;;;;;;;5.85;2.10;;;;;;;1.16;100.00;102689.78;5067550;28;20040;-62
2023/03/28 04:05:43;;;;;;;10.60;2.30;;;;;;;1.11;100.00;102694.81;5069885;28;20024;-61
2023/03/28 04:08:08;;;;;;;9.55;2.17;;;;;;;1.13;100.00;102697.47;5069599;28;20073;-63
2023/03/28 04:10:34;;;;;;;7.55;2.00;;;;;;;1.06;100.00;102701.59;5068945;28;20033;-64
2023/03/28 04:12:59;;;;;;;6.60;2.40;;;;;;;1.06;100.00;102695.50;5069924;28;20095;-59
2023/03/28 04:15:25;;;;;;;7.55;2.20;;;;;;;1.05;100.00;102692.00;5068032;28;20529;-61
2023/03/28 04:17:51;;;;;;;9.85;2.33;;;;;;;1.05;100.00;102694.59;5065592;28;20040;-62
2023/03/28 04:20:17;;;;;;;7.55;2.78;;;;;;;1.05;100.00;102688.53;5067145;28;20029;-61
2023/03/28 04:22:42;;;;;;;10.63;2.42;;;;;;;1.06;100.00;102690.31;5066001;28;20028;-63
2023/03/28 04:25:08;;;;;;;15.27;2.47;;;;;;;1.05;100.00;102694.59;5047937;28;20032;-63
2023/03/28 04:27:33;;;;;;;7.90;2.08;;;;;;;1.03;100.00;102687.59;5068181;28;20025;-61
2023/03/28 04:30:01;;;;;;;7.32;2.25;;;;;;;1.00;100.00;102686.63;5065759;28;20025;-58
2023/03/28 04:32:27;;;;;;;2.77;1.60;;;;;;;1.02;100.00;102691.88;5067438;28;20021;-63
2023/03/28 04:34:52;;;;;;;9.95;2.88;;;;;;;1.05;100.00;102693.75;5069471;28;20361;-62
2023/03/28 04:37:18;;;;;;;7.22;2.20;;;;;;;1.05;100.00;102691.13;5067940;28;20583;-60
2023/03/28 04:39:45;;;;;;;7.13;2.03;;;;;;;1.05;100.00;102702.38;5067470;28;20028;-64
2023/03/28 04:42:15;;;;;;;8.45;2.33;;;;;;;0.98;100.00;102696.09;5048751;28;20036;-63
2023/03/28 04:44:40;;;;;;;7.18;2.20;;;;;;;0.98;100.00;102693.50;5067033;28;20544;-60
2023/03/28 04:47:10;;;;;;;7.30;2.85;;;;;;;0.98;100.00;102700.41;5066390;28;20028;-62
2023/03/28 04:49:35;;;;;;;7.03;2.00;;;;;;;0.96;100.00;102697.75;5064188;28;20025;-59
2023/03/28 04:52:01;;;;;;;10.43;2.55;;;;;;;0.94;100.00;102693.34;5066180;28;20032;-63
2023/03/28 04:54:26;;;;;;;10.50;2.10;;;;;;;1.00;100.00;102697.03;5065592;28;20020;-63
2023/03/28 04:56:52;;;;;;;10.85;2.60;;;;;;;1.14;100.00;102688.84;5064895;28;20506;-64
2023/03/28 04:59:18;;;;;;;6.95;2.47;;;;;;;1.20;100.00;102696.84;5048467;28;20028;-61
2023/03/28 05:01:48;;;;;;;8.90;2.60;;;;;;;1.23;100.00;102693.47;5047212;28;20028;-64
2023/03/28 05:04:16;;;;;;;9.10;2.75;;;;;;;1.25;100.00;102692.72;5065654;28;20028;-63
2023/03/28 05:06:42;;;;;;;9.63;2.53;;;;;;;1.30;100.00;102700.69;5063574;28;20036;-65
2023/03/28 05:09:07;;;;;;;9.18;2.08;;;;;;;1.31;100.00;102688.56;5055936;28;20028;-60
2023/03/28 05:11:32;;;;;;;11.98;2.40;;;;;;;1.34;100.00;102693.88;5043821;28;20094;-61
2023/03/28 05:13:58;;;;;;;8.77;2.30;;;;;;;1.39;100.00;102695.78;5050142;28;20048;-62
2023/03/28 05:16:23;;;;;;;10.68;2.58;;;;;;;1.44;100.00;102698.53;5047261;28;20035;-64
2023/03/28 05:18:48;;;;;;;9.57;2.42;;;;;;;1.46;100.00;102691.69;5064647;28;20059;-64
2023/03/28 05:21:14;;;;;;;9.70;2.05;;;;;;;1.54;100.00;102680.69;5064143;28;20098;-63
2023/03/28 05:23:39;;;;;;;9.20;2.30;;;;;;;1.56;100.00;102692.00;5047665;28;20550;-63
2023/03/28 05:26:05;;;;;;;6.93;1.98;;;;;;;1.56;100.00;102692.00;5063830;28;20115;-61
2023/03/28 05:28:31;;;;;;;10.48;1.75;;;;;;;1.69;100.00;102693.28;5065724;28;20056;-64
2023/03/28 05:30:56;;;;;;;10.40;2.25;;;;;;;1.76;100.00;102703.97;5063071;28;20090;-63
2023/03/28 05:33:21;;;;;;;12.48;2.47;;;;;;;1.84;100.00;102698.13;5065353;28;20395;-65
2023/03/28 05:35:47;;;;;;;15.40;2.83;;;;;;;1.91;100.00;102705.28;5064519;28;20089;-64
2023/03/28 05:38:13;;;;;;;6.53;2.03;;;;;;;1.99;100.00;102709.00;5063481;28;20438;-61
2023/03/28 05:40:38;;;;;;;18.05;2.70;;;;;;;2.02;100.00;102703.91;5065341;28;20320;-63
2023/03/28 05:43:03;;;;;;;18.63;2.83;;;;;;;2.11;100.00;102702.44;5045617;28;20776;-64
2023/03/28 05:45:29;;;;;;;11.25;2.30;;;;;;;2.16;100.00;102707.78;5064453;28;20028;-61
2023/03/28 05:47:55;;;;;;;10.25;2.22;;;;;;;2.18;100.00;102712.19;5064905;28;20242;-64
2023/03/28 05:50:21;;;;;;;5.88;2.22;;;;;;;2.22;100.00;102708.84;5063109;28;20029;-63
2023/03/28 05:52:46;;;;;;;8.73;2.40;;;;;;;2.24;100.00;102704.59;5065011;28;20343;-61
2023/03/28 05:55:12;;;;;;;6.95;2.10;;;;;;;2.31;100.00;102716.06;5063788;28;20058;-62
2023/03/28 05:57:37;;;;;;;10.00;3.42;;;;;;;2.34;100.00;102707.47;5063395;28;20333;-64
2023/03/28 06:00:09;;;;;;;6.25;2.95;;;;;;;2.38;100.00;102709.34;5064571;28;20108;-64
2023/03/28 06:02:35;;;;;;;8.75;2.17;;;;;;;2.41;100.00;102712.03;5046109;28;20298;-62
2023/03/28 06:05:00;;;;;;;8.02;2.63;;;;;;;2.42;100.00;102700.78;5063507;28;20029;-65
2023/03/28 06:07:25;;;;;;;5.60;2.67;;;;;;;2.44;100.00;102703.44;5065154;28;20035;-62
2023/03/28 06:09:51;;;;;;;13.55;3.08;;;;;;;2.51;100.00;102710.59;5062994;28;20024;-61
2023/03/28 06:12:16;;;;;;;12.63;3.05;;;;;;;2.60;100.00;102709.97;5065164;28;20458;-61
2023/03/28 06:14:41;;;;;;;11.20;2.45;;;;;;;2.66;100.00;102712.75;5063253;28;20456;-59
2023/03/28 06:17:07;;;;;;;5.82;3.58;;;;;;;2.75;100.00;102713.03;5062371;28;20991;-63
2023/03/28 06:19:32;;;;;;;5.30;3.50;;;;;;;2.81;100.00;102716.66;5065205;28;20036;-64
2023/03/28 06:21:57;;;;;;;9.73;2.97;;;;;;;2.88;100.00;102708.16;5064656;28;20025;-62
2023/03/28 06:24:23;;;;;;;7.97;2.83;;;;;;;2.96;100.00;102706.69;5066534;28;20021;-61
2023/03/28 06:26:48;;;;;;;11.63;2.90;;;;;;;2.99;100.00;102711.97;5069575;28;20086;-61
2023/03/28 06:29:15;;;;;;;11.07;3.17;;;;;;;3.02;100.00;102712.06;5049574;28;20390;-63
2023/03/28 06:31:40;;;;;;;13.18;4.03;;;;;;;3.14;100.00;102708.91;5066418;28;20031;-64
2023/03/28 06:34:05;;;;;;;12.57;4.43;;;;;;;3.25;100.00;102709.19;5068767;28;20416;-64
2023/03/28 06:36:30;;;;;;;13.93;3.75;;;;;;;3.31;100.00;102707.59;5067765;28;20044;-63
2023/03/28 06:38:57;;;;;;;17.33;3.35;;;;;;;3.42;100.00;102698.34;5066533;28;20190;-61
2023/03/28 06:41:22;;;;;;;11.75;3.65;;;;;;;3.45;100.00;102701.03;5068592;28;20021;-63
2023/03/28 06:43:48;;;;;;;18.55;4.13;;;;;;;3.61;100.00;102704.03;5067423;28;20439;-63
2023/03/28 06:46:15;;;;;;;9.95;3.78;;;;;;;3.66;100.00;102707.63;5065503;28;20117;-63
2023/03/28 06:48:40;;;;;;;14.80;3.83;;;;;;;3.85;100.00;102706.34;5068425;28;20117;-61
2023/03/28 06:51:05;;;;;;;10.77;3.90;;;;;;;4.05;100.00;102703.34;5066091;28;20064;-63
2023/03/28 06:53:31;;;;;;;19.27;4.43;;;;;;;4.12;100.00;102702.63;5068520;28;20029;-62
2023/03/28 06:55:57;;;;;;;9.90;3.40;;;;;;;4.25;100.00;102700.31;5068183;28;20033;-62
2023/03/28 06:58:22;;;;;;;8.80;3.50;;;;;;;4.38;100.00;102711.91;5065963;28;20032;-65
2023/03/28 07:00:51;;;;;;;14.50;4.18;;;;;;;4.50;100.00;102712.19;5067608;28;20025;-64
2023/03/28 07:03:16;;;;;;;15.18;3.60;;;;;;;4.62;100.00;102716.78;5067463;28;20428;-65
2023/03/28 07:05:42;;;;;;;14.25;3.78;;;;;;;4.69;100.00;102720.41;5066283;28;20024;-65
2023/03/28 07:08:09;;;;;;;10.70;3.58;;;;;;;4.74;100.00;102716.16;5068229;28;20051;-66
2023/03/28 07:10:38;;;;;;;9.20;3.45;;;;;;;4.91;100.00;102713.03;5049607;28;20036;-63
2023/03/28 07:13:04;;;;;;;13.27;3.60;;;;;;;4.92;100.00;102720.91;5065833;28;20459;-65
2023/03/28 07:15:29;;;;;;;13.10;4.05;;;;;;;5.08;100.00;102710.72;5067662;28;20041;-65
2023/03/28 07:17:55;;;;;;;21.08;4.00;;;;;;;5.17;100.00;102710.91;5067517;28;20036;-64
2023/03/28 07:20:22;;;;;;;13.27;4.32;;;;;;;5.25;100.00;102703.22;5065271;28;20028;-61
2023/03/28 07:22:47;;;;;;;13.18;3.58;;;;;;;5.42;100.00;102705.28;5068036;28;20032;-61
2023/03/28 07:25:12;;;;;;;11.68;4.07;;;;;;;5.56;100.00;102703.78;5066897;28;20132;-65
2023/03/28 07:27:38;;;;;;;9.98;3.33;;;;;;;5.56;100.00;102703.78;5065791;28;20479;-63
2023/03/28 07:30:04;;;;;;;6.25;3.05;;;;;;;5.63;100.00;102703.88;5066846;28;20467;-63
2023/03/28 07:32:29;;;;;;;16.30;3.50;;;;;;;5.76;100.00;102699.72;5065343;28;20474;-60
2023/03/28 07:34:55;;;;;;;18.63;3.63;;;;;;;5.90;100.00;102708.66;5067016;28;20053;-65
2023/03/28 07:37:20;;;;;;;12.00;3.75;;;;;;;6.09;100.00;102702.88;5067349;28;20649;-62
2023/03/28 07:39:46;;;;;;;6.00;3.00;;;;;;;6.25;100.00;102709.22;5065840;28;20495;-65
2023/03/28 07:42:12;;;;;;;16.30;4.20;;;;;;;6.37;100.00;102703.25;5066998;28;20038;-63
2023/03/28 07:44:38;;;;;;;7.68;3.05;;;;;;;6.67;100.00;102707.16;5048508;28;20025;-59
2023/03/28 07:47:04;;;;;;;8.48;2.63;;;;;;;6.74;100.00;102703.75;5047558;28;20193;-62
2023/03/28 07:49:30;;;;;;;10.00;3.10;;;;;;;6.80;100.00;102709.06;5066660;28;20017;-64
2023/03/28 07:51:55;;;;;;;7.00;2.97;;;;;;;6.90;100.00;102706.56;5067227;28;20048;-65
2023/03/28 07:54:21;;;;;;;10.00;3.10;;;;;;;6.88;99.78;102696.06;5064547;28;20035;-61
2023/03/28 07:56:47;;;;;;;10.60;3.00;;;;;;;7.03;98.57;102694.47;5067116;28;20043;-60
2023/03/28 07:59:13;;;;;;;13.32;2.63;;;;;;;7.15;98.14;102696.34;5066917;28;20029;-62
2023/03/28 08:01:43;;;;;;;7.40;2.92;;;;;;;7.31;97.03;102690.38;5064594;28;20029;-66
2023/03/28 08:04:10;;;;;;;11.77;3.03;;;;;;;7.38;95.27;102686.09;5066753;28;20028;-62
2023/03/28 08:06:37;;;;;;;9.05;3.00;;;;;;;7.44;94.14;102690.50;5066294;28;20024;-63
2023/03/28 08:09:07;;;;;;;7.95;2.00;;;;;;;7.52;91.82;102690.56;5065053;28;20161;-65
2023/03/28 08:11:34;;;;;;;6.97;2.83;;;;;;;7.71;90.91;102691.63;5067317;28;20032;-63
2023/03/28 08:14:00;;;;;;;5.13;2.58;;;;;;;7.85;89.71;102691.72;5065426;28;20240;-58
2023/03/28 08:16:26;;;;;;;6.65;2.35;;;;;;;7.99;90.63;102696.19;5064726;28;20107;-67
2023/03/28 08:18:51;;;;;;;6.15;2.33;;;;;;;8.00;90.29;102700.59;5067087;28;20519;-58
2023/03/28 08:21:17;;;;;;;11.32;4.18;;;;;;;7.77;92.08;102696.03;5047022;28;20048;-58
2023/03/28 08:23:43;;;;;;;8.48;2.70;;;;;;;8.09;89.82;102698.00;5065245;28;20035;-63
2023/03/28 08:26:09;;;;;;;6.82;2.75;;;;;;;8.14;88.55;102698.03;5066097;28;20020;-65
2023/03/28 08:28:35;;;;;;;9.75;2.97;;;;;;;8.38;88.20;102696.41;5064157;28;20570;-65
2023/03/28 08:31:08;;;;;;;6.07;2.58;;;;;;;8.13;89.41;102693.66;5062719;28;20036;-62
2023/03/28 08:33:33;;;;;;;8.05;2.65;;;;;;;8.42;84.54;102698.19;5066482;28;20024;-60
2023/03/28 08:35:59;;;;;;;8.90;2.40;;;;;;;8.50;82.65;102692.97;5065957;28;20115;-60
2023/03/28 08:38:24;;;;;;;10.52;2.90;;;;;;;8.31;84.57;102685.88;5065263;28;20129;-61
2023/03/28 08:41:16;;;;;;;12.05;2.85;;;;;;;8.37;83.23;102694.66;5065820;28;20376;-63
2023/03/28 08:43:53;;;;;;;8.35;2.50;;;;;;;8.29;82.72;102692.88;5064447;28;20028;-63
2023/03/28 08:46:21;;;;;;;9.15;3.05;;;;;;;8.22;83.47;102704.22;5047696;28;20119;-64
2023/03/28 08:48:47;;;;;;;14.00;2.90;;;;;;;8.32;81.72;102698.16;5065173;28;20032;-60
2023/03/28 08:51:34;;;;;;;14.13;3.53;;;;;;;8.49;77.33;102699.09;5064153;28;20097;-59
2023/03/28 08:54:11;;;;;;;13.00;3.75;;;;;;;8.41;76.95;102702.56;5048214;28;20039;-62
2023/03/28 08:56:43;;;;;;;6.50;3.25;;;;;;;8.52;75.75;102705.22;5047158;28;20489;-60
2023/03/28 08:59:14;;;;;;;15.02;3.58;;;;;;;8.53;77.60;102700.88;5063926;28;20051;-55
2023/03/28 09:01:40;;;;;;;13.95;3.45;;;;;;;8.69;75.37;102701.84;5048210;28;20035;-63
2023/03/28 09:04:05;;;;;;;12.43;4.07;;;;;;;8.65;77.06;102700.97;5064808;28;20024;-59
2023/03/28 09:06:39;;;;;;;10.20;3.20;;;;;;;8.81;75.47;102694.00;5046543;28;20024;-64
2023/03/28 09:09:07;;;;;;;11.85;3.45;;;;;;;8.53;75.60;102691.25;5047069;28;20029;-63
2023/03/28 09:11:41;;;;;;;8.55;3.33;;;;;;;8.42;76.35;102687.66;5063962;28;20036;-62
2023/03/28 09:14:42;;;;;;;13.07;3.50;;;;;;;8.62;74.40;102692.19;5064821;28;20105;-63
2023/03/28 09:17:14;;;;;;;9.48;3.05;;;;;;;8.55;76.03;102688.66;5021647;28;20032;-65
2023/03/28 09:19:42;;;;;;;11.40;2.60;;;;;;;8.60;73.85;102686.91;5028279;28;20115;-64
2023/03/28 09:22:34;;;;;;;6.53;2.33;;;;;;;8.51;71.46;102687.72;5065620;28;20115;-63
2023/03/28 09:25:21;;;;;;;5.95;2.00;;;;;;;8.50;73.15;102683.34;5064958;28;20025;-62
2023/03/28 09:28:02;;;;;;;8.85;2.58;;;;;;;8.50;70.26;102675.47;5065039;28;20478;-60
2023/03/28 09:30:37;;;;;;;9.20;2.35;;;;;;;8.55;69.66;102668.50;5064296;28;20032;-60
2023/03/28 09:33:09;;;;;;;7.85;2.13;;;;;;;8.87;69.15;102669.50;5045066;28;20028;-58
2023/03/28 09:35:34;;;;;;;6.32;2.40;;;;;;;8.98;69.46;102666.91;5047628;28;20028;-62
2023/03/28 09:38:04;;;;;;;11.73;2.40;;;;;;;9.15;68.03;102658.16;5046495;28;20029;-63
2023/03/28 09:40:31;;;;;;;7.95;2.45;;;;;;;9.13;69.59;102646.75;5063625;28;20447;-60
2023/03/28 09:43:18;;;;;;;7.32;2.63;;;;;;;9.02;70.59;102642.34;5065199;28;20078;-62
2023/03/28 09:45:59;;;;;;;5.78;2.40;;;;;;;9.20;67.31;102645.88;5064494;28;20028;-65
2023/03/28 09:48:27;;;;;;;11.82;2.65;;;;;;;9.17;67.06;102640.59;5047049;28;20487;-64
2023/03/28 09:50:52;;;;;;;12.32;2.85;;;;;;;9.23;68.79;102638.00;5045716;28;20072;-64
2023/03/28 09:53:33;;;;;;;8.73;2.70;;;;;;;9.10;69.26;102630.09;5064768;28;20033;-63
2023/03/28 09:56:06;;;;;;;13.45;2.40;;;;;;;9.05;67.91;102631.84;5063170;28;20035;-57
2023/03/28 09:58:52;;;;;;;18.13;2.92;;;;;;;9.16;66.29;102623.97;5064131;28;20598;-63
2023/03/28 10:01:30;;;;;;;8.20;2.53;;;;;;;8.83;67.50;102631.81;5044768;28;20020;-62
2023/03/28 10:03:56;;;;;;;7.32;2.15;;;;;;;8.85;65.53;102616.91;5065609;28;20052;-62
2023/03/28 10:06:30;;;;;;;4.53;2.45;;;;;;;8.71;67.10;102621.25;5064323;28;20112;-62
2023/03/28 10:09:26;;;;;;;11.90;3.10;;;;;;;8.89;67.00;102619.53;5063144;28;20033;-64
2023/03/28 10:11:55;;;;;;;9.20;2.60;;;;;;;8.92;68.07;102615.19;5065149;28;20142;-59
2023/03/28 10:14:41;;;;;;;3.72;1.67;;;;;;;9.21;62.19;102616.94;5063304;28;20226;-63
2023/03/28 10:17:14;;;;;;;6.78;1.85;;;;;;;9.50;57.77;102602.03;5062622;28;20045;-63
2023/03/28 10:19:45;;;;;;;8.43;1.90;;;;;;;9.35;54.95;102597.66;5064865;28;20021;-60
2023/03/28 10:22:23;;;;;;;6.35;1.80;;;;;;;9.43;55.50;102603.81;5045778;28;20514;-62
2023/03/28 10:24:48;;;;;;;7.00;1.50;;;;;;;9.63;54.00;102597.63;5044843;28;20028;-64
2023/03/28 10:27:31;;;;;;;6.93;2.05;;;;;;;9.65;53.80;102593.25;5065036;28;20028;-66
2023/03/28 10:29:58;;;;;;;8.43;1.75;;;;;;;9.61;57.29;102592.34;5045250;28;20108;-62
2023/03/28 10:32:30;;;;;;;2.63;1.52;;;;;;;9.23;53.67;102585.38;5044937;28;20411;-62
2023/03/28 10:35:06;;;;;;;5.68;1.88;;;;;;;9.39;51.45;102577.50;5044315;28;20017;-60
2023/03/28 10:37:33;;;;;;;4.40;1.50;;;;;;;9.37;51.95;102576.63;5025662;28;20053;-62
2023/03/28 10:40:05;;;;;;;4.95;1.65;;;;;;;9.27;53.75;102573.13;5062500;28;20032;-61
2023/03/28 10:42:42;;;;;;;3.33;1.40;;;;;;;9.52;49.02;102571.34;5064479;28;20029;-56
2023/03/28 10:45:19;;;;;;;3.60;1.70;;;;;;;9.27;54.64;102555.56;5063185;28;20044;-60
2023/03/28 10:47:46;;;;;;;5.07;1.52;;;;;;;9.10;52.35;102555.59;5064735;28;20028;-63
2023/03/28 10:50:48;;;;;;;6.55;1.65;;;;;;;9.31;50.16;102541.56;5062841;28;20021;-63
2023/03/28 10:53:51;;;;;;;8.45;1.75;;;;;;;9.60;50.01;102551.13;5030061;28;20047;-62
2023/03/28 10:56:28;;;;;;;5.82;1.80;;;;;;;9.91;51.37;102552.81;5062828;28;20032;-59
2023/03/28 10:59:12;;;;;;;3.58;1.95;;;;;;;10.07;50.52;102545.72;5061524;28;20031;-63
2023/03/28 11:01:47;;;;;;;5.72;1.73;;;;;;;10.24;52.08;102544.78;5064026;28;20036;-63
2023/03/28 11:05:01;;;;;;;7.57;2.05;;;;;;;10.16;52.56;102546.56;5044972;28;20032;-57
2023/03/28 11:07:43;;;;;;;5.13;2.40;;;;;;;9.93;49.95;102547.56;5040923;28;20237;-63
2023/03/28 11:10:50;;;;;;;7.78;2.70;;;;;;;10.07;51.16;102537.81;5065539;28;20078;-61
2023/03/28 11:13:53;;;;;;;6.47;3.15;;;;;;;10.08;52.90;102543.94;5019998;28;20102;-61
2023/03/28 11:16:40;;;;;;;12.38;4.05;;;;;;;9.39;56.85;102540.66;5067223;28;20052;-63
2023/03/28 11:19:20;;;;;;;13.15;4.65;;;;;;;9.64;56.38;102535.34;5066418;28;20024;-60
2023/03/28 11:21:57;;;;;;;11.02;4.30;;;;;;;9.53;57.71;102530.97;5068369;28;20078;-62
2023/03/28 11:24:47;;;;;;;10.40;4.47;;;;;;;9.37;59.17;102527.50;5068584;28;20028;-63
2023/03/28 11:28:06;;;;;;;13.02;5.40;;;;;;;9.42;55.58;102530.13;5066829;28;20025;-63
2023/03/28 11:30:33;;;;;;;12.68;4.88;;;;;;;9.31;55.50;102515.25;4969818;28;20521;-62
2023/03/28 11:33:12;;;;;;;10.38;4.30;;;;;;;9.25;55.86;102511.75;5057835;28;20043;-59
2023/03/28 11:35:40;;;;;;;10.30;4.47;;;;;;;9.18;56.94;102503.00;5049314;28;20047;-62
2023/03/28 11:38:21;;;;;;;16.10;4.75;;;;;;;9.31;55.36;102502.09;5048405;28;20475;-65
2023/03/28 11:41:08;;;;;;;13.68;4.57;;;;;;;9.46;56.08;102497.69;5064894;28;20025;-63